sensor_id;sensor_type;location;lat;lon;timestamp;P1;durP1;ratioP1;P2;durP2;ratioP2
70796;SDS011;63842;52.144;5.360;2023-04-06T00:01:31;19.52;;;9.82;;
70796;SDS011;63842;52.144;5.360;2023-04-06T00:03:58;20.63;;;10.30;;
70796;SDS011;63842;52.144;5.360;2023-04-06T00:06:26;19.70;;;10.25;;
70796;SDS011;63842;52.144;5.360;2023-04-06T00:08:53;18.88;;;9.38;;
70796;SDS011;63842;52.144;5.360;2023-04-06T00:11:21;20.25;;;9.15;;
70796;SDS011;63842;52.144;5.360;2023-04-06T00:13:49;20.52;;;10.02;;
70796;SDS011;63842;52.144;5.360;2023-04-06T00:16:16;22.13;;;9.88;;
70796;SDS011;63842;52.144;5.360;2023-04-06T00:18:44;18.98;;;9.45;;
70796;SDS011;63842;52.144;5.360;2023-04-06T00:21:11;20.23;;;9.93;;
70796;SDS011;63842;52.144;5.360;2023-04-06T00:23:39;21.13;;;9.65;;
70796;SDS011;63842;52.144;5.360;2023-04-06T00:26:07;20.80;;;9.63;;
70796;SDS011;63842;52.144;5.360;2023-04-06T00:28:35;18.48;;;8.95;;
70796;SDS011;63842;52.144;5.360;2023-04-06T00:31:02;20.67;;;9.23;;
70796;SDS011;63842;52.144;5.360;2023-04-06T00:33:30;21.30;;;9.43;;
70796;SDS011;63842;52.144;5.360;2023-04-06T00:35:57;20.23;;;9.40;;
70796;SDS011;63842;52.144;5.360;2023-04-06T00:38:24;18.70;;;9.55;;
70796;SDS011;63842;52.144;5.360;2023-04-06T00:40:52;20.80;;;9.05;;
70796;SDS011;63842;52.144;5.360;2023-04-06T00:43:19;19.85;;;8.73;;
70796;SDS011;63842;52.144;5.360;2023-04-06T00:45:47;18.25;;;8.68;;
70796;SDS011;63842;52.144;5.360;2023-04-06T00:48:14;18.23;;;9.10;;
70796;SDS011;63842;52.144;5.360;2023-04-06T00:50:42;18.88;;;8.68;;
70796;SDS011;63842;52.144;5.360;2023-04-06T00:53:10;19.42;;;8.70;;
70796;SDS011;63842;52.144;5.360;2023-04-06T00:55:38;19.38;;;9.13;;
70796;SDS011;63842;52.144;5.360;2023-04-06T00:58:05;19.40;;;9.50;;
70796;SDS011;63842;52.144;5.360;2023-04-06T01:00:43;17.20;;;8.63;;
70796;SDS011;63842;52.144;5.360;2023-04-06T01:03:15;17.85;;;8.80;;
70796;SDS011;63842;52.144;5.360;2023-04-06T01:05:43;20.02;;;8.80;;
70796;SDS011;63842;52.144;5.360;2023-04-06T01:08:18;19.52;;;8.77;;
70796;SDS011;63842;52.144;5.360;2023-04-06T01:10:45;21.25;;;9.20;;
70796;SDS011;63842;52.144;5.360;2023-04-06T01:13:27;17.90;;;8.57;;
70796;SDS011;63842;52.144;5.360;2023-04-06T01:16:04;18.92;;;8.25;;
70796;SDS011;63842;52.144;5.360;2023-04-06T01:18:44;16.55;;;8.15;;
70796;SDS011;63842;52.144;5.360;2023-04-06T01:21:18;17.80;;;8.18;;
70796;SDS011;63842;52.144;5.360;2023-04-06T01:24:00;18.08;;;8.70;;
70796;SDS011;63842;52.144;5.360;2023-04-06T01:26:38;17.90;;;8.23;;
70796;SDS011;63842;52.144;5.360;2023-04-06T01:29:08;19.85;;;8.77;;
70796;SDS011;63842;52.144;5.360;2023-04-06T01:31:35;17.88;;;8.10;;
70796;SDS011;63842;52.144;5.360;2023-04-06T01:34:03;17.08;;;7.82;;
70796;SDS011;63842;52.144;5.360;2023-04-06T01:36:31;17.85;;;8.05;;
70796;SDS011;63842;52.144;5.360;2023-04-06T01:39:18;16.83;;;8.77;;
70796;SDS011;63842;52.144;5.360;2023-04-06T01:41:46;17.50;;;8.10;;
70796;SDS011;63842;52.144;5.360;2023-04-06T01:44:18;18.20;;;8.25;;
70796;SDS011;63842;52.144;5.360;2023-04-06T01:46:52;18.05;;;8.07;;
70796;SDS011;63842;52.144;5.360;2023-04-06T01:49:20;17.05;;;7.90;;
70796;SDS011;63842;52.144;5.360;2023-04-06T01:51:52;17.73;;;7.63;;
70796;SDS011;63842;52.144;5.360;2023-04-06T01:54:21;15.52;;;7.68;;
70796;SDS011;63842;52.144;5.360;2023-04-06T01:57:09;18.95;;;7.68;;
70796;SDS011;63842;52.144;5.360;2023-04-06T01:59:44;17.15;;;8.07;;
70796;SDS011;63842;52.144;5.360;2023-04-06T02:02:21;17.40;;;7.70;;
70796;SDS011;63842;52.144;5.360;2023-04-06T02:04:59;16.88;;;7.13;;
70796;SDS011;63842;52.144;5.360;2023-04-06T02:07:27;16.55;;;7.63;;
70796;SDS011;63842;52.144;5.360;2023-04-06T02:09:55;14.82;;;7.50;;
70796;SDS011;63842;52.144;5.360;2023-04-06T02:12:34;18.33;;;7.57;;
70796;SDS011;63842;52.144;5.360;2023-04-06T02:15:04;15.95;;;7.15;;
70796;SDS011;63842;52.144;5.360;2023-04-06T02:17:31;14.32;;;6.45;;
70796;SDS011;63842;52.144;5.360;2023-04-06T02:19:58;15.38;;;6.88;;
70796;SDS011;63842;52.144;5.360;2023-04-06T02:22:26;14.27;;;6.03;;
70796;SDS011;63842;52.144;5.360;2023-04-06T02:24:53;15.15;;;7.00;;
70796;SDS011;63842;52.144;5.360;2023-04-06T02:27:20;14.75;;;6.82;;
70796;SDS011;63842;52.144;5.360;2023-04-06T02:29:48;13.30;;;6.43;;
70796;SDS011;63842;52.144;5.360;2023-04-06T02:32:18;15.70;;;7.13;;
70796;SDS011;63842;52.144;5.360;2023-04-06T02:34:47;16.13;;;6.78;;
70796;SDS011;63842;52.144;5.360;2023-04-06T02:37:16;15.52;;;6.85;;
70796;SDS011;63842;52.144;5.360;2023-04-06T02:39:43;16.27;;;7.28;;
70796;SDS011;63842;52.144;5.360;2023-04-06T02:42:10;13.73;;;6.60;;
70796;SDS011;63842;52.144;5.360;2023-04-06T02:44:38;16.40;;;6.65;;
70796;SDS011;63842;52.144;5.360;2023-04-06T02:47:07;14.52;;;6.72;;
70796;SDS011;63842;52.144;5.360;2023-04-06T02:49:36;15.85;;;6.75;;
70796;SDS011;63842;52.144;5.360;2023-04-06T02:52:03;16.27;;;7.32;;
70796;SDS011;63842;52.144;5.360;2023-04-06T02:54:35;14.93;;;6.18;;
70796;SDS011;63842;52.144;5.360;2023-04-06T02:57:03;18.42;;;7.47;;
70796;SDS011;63842;52.144;5.360;2023-04-06T02:59:40;15.20;;;6.38;;
70796;SDS011;63842;52.144;5.360;2023-04-06T03:02:19;18.27;;;6.88;;
70796;SDS011;63842;52.144;5.360;2023-04-06T03:04:47;15.43;;;6.68;;
70796;SDS011;63842;52.144;5.360;2023-04-06T03:07:21;14.00;;;6.18;;
70796;SDS011;63842;52.144;5.360;2023-04-06T03:09:49;14.60;;;7.05;;
70796;SDS011;63842;52.144;5.360;2023-04-06T03:12:16;15.82;;;6.85;;
70796;SDS011;63842;52.144;5.360;2023-04-06T03:15:16;16.05;;;6.60;;
70796;SDS011;63842;52.144;5.360;2023-04-06T03:17:49;14.40;;;6.15;;
70796;SDS011;63842;52.144;5.360;2023-04-06T03:20:49;13.30;;;6.75;;
70796;SDS011;63842;52.144;5.360;2023-04-06T03:23:18;14.45;;;6.65;;
70796;SDS011;63842;52.144;5.360;2023-04-06T03:25:51;13.75;;;7.03;;
70796;SDS011;63842;52.144;5.360;2023-04-06T03:28:20;15.32;;;6.82;;
70796;SDS011;63842;52.144;5.360;2023-04-06T03:30:54;13.73;;;6.22;;
70796;SDS011;63842;52.144;5.360;2023-04-06T03:36:04;17.77;;;5.82;;
70796;SDS011;63842;52.144;5.360;2023-04-06T03:38:35;14.15;;;6.75;;
70796;SDS011;63842;52.144;5.360;2023-04-06T03:41:10;15.98;;;6.97;;
70796;SDS011;63842;52.144;5.360;2023-04-06T03:43:40;12.40;;;6.32;;
70796;SDS011;63842;52.144;5.360;2023-04-06T03:46:07;16.40;;;7.10;;
70796;SDS011;63842;52.144;5.360;2023-04-06T03:48:34;14.75;;;6.85;;
70796;SDS011;63842;52.144;5.360;2023-04-06T03:51:04;14.02;;;7.03;;
70796;SDS011;63842;52.144;5.360;2023-04-06T03:53:32;15.77;;;6.82;;
70796;SDS011;63842;52.144;5.360;2023-04-06T03:55:59;14.30;;;6.82;;
70796;SDS011;63842;52.144;5.360;2023-04-06T03:58:30;15.45;;;6.95;;
70796;SDS011;63842;52.144;5.360;2023-04-06T04:00:57;17.73;;;6.88;;
70796;SDS011;63842;52.144;5.360;2023-04-06T04:03:25;14.35;;;6.93;;
70796;SDS011;63842;52.144;5.360;2023-04-06T04:05:54;14.55;;;6.70;;
70796;SDS011;63842;52.144;5.360;2023-04-06T04:08:24;15.95;;;7.20;;
70796;SDS011;63842;52.144;5.360;2023-04-06T04:10:51;15.93;;;7.57;;
70796;SDS011;63842;52.144;5.360;2023-04-06T04:13:19;15.38;;;7.40;;
70796;SDS011;63842;52.144;5.360;2023-04-06T04:18:16;13.75;;;6.68;;
70796;SDS011;63842;52.144;5.360;2023-04-06T04:20:43;18.00;;;7.07;;
70796;SDS011;63842;52.144;5.360;2023-04-06T04:23:11;17.55;;;7.03;;
70796;SDS011;63842;52.144;5.360;2023-04-06T04:25:39;17.00;;;7.57;;
70796;SDS011;63842;52.144;5.360;2023-04-06T04:28:06;14.07;;;7.07;;
70796;SDS011;63842;52.144;5.360;2023-04-06T04:30:35;17.40;;;7.50;;
70796;SDS011;63842;52.144;5.360;2023-04-06T04:33:07;15.30;;;7.15;;
70796;SDS011;63842;52.144;5.360;2023-04-06T04:35:35;16.17;;;7.25;;
70796;SDS011;63842;52.144;5.360;2023-04-06T04:38:05;16.55;;;7.40;;
70796;SDS011;63842;52.144;5.360;2023-04-06T04:40:36;18.48;;;7.43;;
70796;SDS011;63842;52.144;5.360;2023-04-06T04:43:07;19.55;;;8.02;;
70796;SDS011;63842;52.144;5.360;2023-04-06T04:45:34;16.42;;;7.80;;
70796;SDS011;63842;52.144;5.360;2023-04-06T04:48:11;16.95;;;7.28;;
70796;SDS011;63842;52.144;5.360;2023-04-06T04:50:56;15.88;;;7.38;;
70796;SDS011;63842;52.144;5.360;2023-04-06T04:53:33;17.67;;;7.20;;
70796;SDS011;63842;52.144;5.360;2023-04-06T04:56:11;16.00;;;7.60;;
70796;SDS011;63842;52.144;5.360;2023-04-06T04:58:38;18.38;;;8.00;;
70796;SDS011;63842;52.144;5.360;2023-04-06T05:01:07;18.33;;;8.30;;
70796;SDS011;63842;52.144;5.360;2023-04-06T05:03:35;17.17;;;7.75;;
70796;SDS011;63842;52.144;5.360;2023-04-06T05:06:09;15.43;;;7.72;;
70796;SDS011;63842;52.144;5.360;2023-04-06T05:08:40;18.95;;;8.00;;
70796;SDS011;63842;52.144;5.360;2023-04-06T05:11:09;17.70;;;8.07;;
70796;SDS011;63842;52.144;5.360;2023-04-06T05:13:41;21.20;;;8.90;;
70796;SDS011;63842;52.144;5.360;2023-04-06T05:16:16;18.92;;;8.60;;
70796;SDS011;63842;52.144;5.360;2023-04-06T05:18:44;19.13;;;7.63;;
70796;SDS011;63842;52.144;5.360;2023-04-06T05:21:12;17.60;;;7.90;;
70796;SDS011;63842;52.144;5.360;2023-04-06T05:23:54;19.98;;;8.45;;
70796;SDS011;63842;52.144;5.360;2023-04-06T05:26:22;17.25;;;7.68;;
70796;SDS011;63842;52.144;5.360;2023-04-06T05:28:57;17.60;;;8.18;;
70796;SDS011;63842;52.144;5.360;2023-04-06T05:31:27;18.95;;;8.32;;
70796;SDS011;63842;52.144;5.360;2023-04-06T05:33:55;18.45;;;8.50;;
70796;SDS011;63842;52.144;5.360;2023-04-06T05:36:29;18.25;;;8.52;;
70796;SDS011;63842;52.144;5.360;2023-04-06T05:39:02;18.65;;;8.88;;
70796;SDS011;63842;52.144;5.360;2023-04-06T05:41:34;22.70;;;9.43;;
70796;SDS011;63842;52.144;5.360;2023-04-06T05:44:02;19.73;;;9.68;;
70796;SDS011;63842;52.144;5.360;2023-04-06T05:46:30;18.55;;;8.90;;
70796;SDS011;63842;52.144;5.360;2023-04-06T05:48:59;18.13;;;8.63;;
70796;SDS011;63842;52.144;5.360;2023-04-06T05:51:30;21.40;;;8.80;;
70796;SDS011;63842;52.144;5.360;2023-04-06T05:54:01;20.70;;;8.70;;
70796;SDS011;63842;52.144;5.360;2023-04-06T05:56:32;17.98;;;8.50;;
70796;SDS011;63842;52.144;5.360;2023-04-06T05:59:05;20.17;;;9.52;;
70796;SDS011;63842;52.144;5.360;2023-04-06T06:01:33;21.27;;;9.35;;
70796;SDS011;63842;52.144;5.360;2023-04-06T06:04:01;19.90;;;8.60;;
70796;SDS011;63842;52.144;5.360;2023-04-06T06:06:31;20.05;;;9.32;;
70796;SDS011;63842;52.144;5.360;2023-04-06T06:09:08;19.27;;;9.10;;
70796;SDS011;63842;52.144;5.360;2023-04-06T06:11:43;21.60;;;9.02;;
70796;SDS011;63842;52.144;5.360;2023-04-06T06:14:24;20.48;;;9.52;;
70796;SDS011;63842;52.144;5.360;2023-04-06T06:16:51;25.13;;;11.40;;
70796;SDS011;63842;52.144;5.360;2023-04-06T06:19:19;22.95;;;11.98;;
70796;SDS011;63842;52.144;5.360;2023-04-06T06:21:50;21.45;;;10.55;;
70796;SDS011;63842;52.144;5.360;2023-04-06T06:24:23;24.48;;;9.93;;
70796;SDS011;63842;52.144;5.360;2023-04-06T06:26:51;24.63;;;9.50;;
70796;SDS011;63842;52.144;5.360;2023-04-06T06:29:22;21.50;;;9.45;;
70796;SDS011;63842;52.144;5.360;2023-04-06T06:31:50;20.85;;;10.05;;
70796;SDS011;63842;52.144;5.360;2023-04-06T06:34:17;20.20;;;10.07;;
70796;SDS011;63842;52.144;5.360;2023-04-06T06:36:45;19.92;;;9.52;;
70796;SDS011;63842;52.144;5.360;2023-04-06T06:39:15;22.20;;;9.63;;
70796;SDS011;63842;52.144;5.360;2023-04-06T06:41:42;21.48;;;10.05;;
70796;SDS011;63842;52.144;5.360;2023-04-06T06:44:11;20.13;;;9.48;;
70796;SDS011;63842;52.144;5.360;2023-04-06T06:46:38;21.50;;;10.40;;
70796;SDS011;63842;52.144;5.360;2023-04-06T06:49:06;22.10;;;10.20;;
70796;SDS011;63842;52.144;5.360;2023-04-06T06:51:33;33.45;;;11.10;;
70796;SDS011;63842;52.144;5.360;2023-04-06T06:54:04;24.63;;;10.55;;
70796;SDS011;63842;52.144;5.360;2023-04-06T06:56:40;23.23;;;10.05;;
70796;SDS011;63842;52.144;5.360;2023-04-06T06:59:07;22.65;;;10.35;;
70796;SDS011;63842;52.144;5.360;2023-04-06T07:01:35;25.20;;;10.25;;
70796;SDS011;63842;52.144;5.360;2023-04-06T07:04:03;24.05;;;10.70;;
70796;SDS011;63842;52.144;5.360;2023-04-06T07:06:31;22.20;;;10.95;;
70796;SDS011;63842;52.144;5.360;2023-04-06T07:08:59;22.20;;;10.43;;
70796;SDS011;63842;52.144;5.360;2023-04-06T07:11:26;26.25;;;10.80;;
70796;SDS011;63842;52.144;5.360;2023-04-06T07:13:53;26.70;;;11.02;;
70796;SDS011;63842;52.144;5.360;2023-04-06T07:16:21;22.92;;;11.10;;
70796;SDS011;63842;52.144;5.360;2023-04-06T07:18:48;20.98;;;10.70;;
70796;SDS011;63842;52.144;5.360;2023-04-06T07:21:16;23.60;;;10.85;;
70796;SDS011;63842;52.144;5.360;2023-04-06T07:23:45;21.83;;;10.50;;
70796;SDS011;63842;52.144;5.360;2023-04-06T07:26:17;23.85;;;10.48;;
70796;SDS011;63842;52.144;5.360;2023-04-06T07:28:45;24.25;;;10.38;;
70796;SDS011;63842;52.144;5.360;2023-04-06T07:31:12;23.25;;;10.30;;
70796;SDS011;63842;52.144;5.360;2023-04-06T07:33:40;25.02;;;10.60;;
70796;SDS011;63842;52.144;5.360;2023-04-06T07:36:07;23.92;;;11.10;;
70796;SDS011;63842;52.144;5.360;2023-04-06T07:38:35;22.25;;;10.90;;
70796;SDS011;63842;52.144;5.360;2023-04-06T07:41:03;26.13;;;11.23;;
70796;SDS011;63842;52.144;5.360;2023-04-06T07:43:33;23.17;;;10.10;;
70796;SDS011;63842;52.144;5.360;2023-04-06T07:46:01;24.60;;;10.90;;
70796;SDS011;63842;52.144;5.360;2023-04-06T07:48:29;28.25;;;12.27;;
70796;SDS011;63842;52.144;5.360;2023-04-06T07:51:01;26.23;;;11.07;;
70796;SDS011;63842;52.144;5.360;2023-04-06T07:53:29;22.90;;;10.43;;
70796;SDS011;63842;52.144;5.360;2023-04-06T07:55:58;21.63;;;11.10;;
70796;SDS011;63842;52.144;5.360;2023-04-06T07:58:25;26.80;;;11.50;;
70796;SDS011;63842;52.144;5.360;2023-04-06T08:00:53;27.27;;;12.57;;
70796;SDS011;63842;52.144;5.360;2023-04-06T08:03:26;24.77;;;11.48;;
70796;SDS011;63842;52.144;5.360;2023-04-06T08:05:57;26.45;;;11.25;;
70796;SDS011;63842;52.144;5.360;2023-04-06T08:08:25;26.58;;;11.38;;
70796;SDS011;63842;52.144;5.360;2023-04-06T08:10:53;25.58;;;11.65;;
70796;SDS011;63842;52.144;5.360;2023-04-06T08:13:20;25.88;;;12.15;;
70796;SDS011;63842;52.144;5.360;2023-04-06T08:15:48;23.92;;;11.48;;
70796;SDS011;63842;52.144;5.360;2023-04-06T08:18:15;25.48;;;11.80;;
70796;SDS011;63842;52.144;5.360;2023-04-06T08:20:43;26.52;;;12.05;;
70796;SDS011;63842;52.144;5.360;2023-04-06T08:23:10;27.10;;;11.85;;
70796;SDS011;63842;52.144;5.360;2023-04-06T08:25:37;24.67;;;12.02;;
70796;SDS011;63842;52.144;5.360;2023-04-06T08:28:05;23.65;;;11.95;;
70796;SDS011;63842;52.144;5.360;2023-04-06T08:30:32;25.08;;;11.35;;
70796;SDS011;63842;52.144;5.360;2023-04-06T08:33:00;26.40;;;13.20;;
70796;SDS011;63842;52.144;5.360;2023-04-06T08:35:27;26.38;;;12.43;;
70796;SDS011;63842;52.144;5.360;2023-04-06T08:37:55;24.80;;;11.48;;
70796;SDS011;63842;52.144;5.360;2023-04-06T08:40:22;27.92;;;12.80;;
70796;SDS011;63842;52.144;5.360;2023-04-06T08:42:54;25.13;;;11.98;;
70796;SDS011;63842;52.144;5.360;2023-04-06T08:45:22;27.92;;;12.80;;
70796;SDS011;63842;52.144;5.360;2023-04-06T08:47:50;26.33;;;12.38;;
70796;SDS011;63842;52.144;5.360;2023-04-06T08:50:18;26.83;;;12.05;;
70796;SDS011;63842;52.144;5.360;2023-04-06T08:52:46;27.52;;;12.38;;
70796;SDS011;63842;52.144;5.360;2023-04-06T08:55:14;25.95;;;12.60;;
70796;SDS011;63842;52.144;5.360;2023-04-06T08:57:42;26.80;;;13.32;;
70796;SDS011;63842;52.144;5.360;2023-04-06T09:00:10;26.90;;;13.13;;
70796;SDS011;63842;52.144;5.360;2023-04-06T09:02:42;25.00;;;12.48;;
70796;SDS011;63842;52.144;5.360;2023-04-06T09:05:10;28.50;;;13.60;;
70796;SDS011;63842;52.144;5.360;2023-04-06T09:07:44;28.25;;;13.00;;
70796;SDS011;63842;52.144;5.360;2023-04-06T09:10:12;31.02;;;13.18;;
70796;SDS011;63842;52.144;5.360;2023-04-06T09:12:40;28.08;;;13.20;;
70796;SDS011;63842;52.144;5.360;2023-04-06T09:15:18;30.40;;;13.55;;
70796;SDS011;63842;52.144;5.360;2023-04-06T09:17:49;27.95;;;13.32;;
70796;SDS011;63842;52.144;5.360;2023-04-06T09:20:23;29.35;;;13.55;;
70796;SDS011;63842;52.144;5.360;2023-04-06T09:22:54;26.48;;;14.07;;
70796;SDS011;63842;52.144;5.360;2023-04-06T09:25:22;31.15;;;12.63;;
70796;SDS011;63842;52.144;5.360;2023-04-06T09:28:03;27.17;;;13.10;;
70796;SDS011;63842;52.144;5.360;2023-04-06T09:30:33;30.58;;;13.52;;
70796;SDS011;63842;52.144;5.360;2023-04-06T09:33:04;29.38;;;14.18;;
70796;SDS011;63842;52.144;5.360;2023-04-06T09:35:33;27.70;;;13.20;;
70796;SDS011;63842;52.144;5.360;2023-04-06T09:38:09;27.42;;;13.05;;
70796;SDS011;63842;52.144;5.360;2023-04-06T09:40:46;26.58;;;12.55;;
70796;SDS011;63842;52.144;5.360;2023-04-06T09:45:53;29.38;;;13.32;;
70796;SDS011;63842;52.144;5.360;2023-04-06T09:48:22;26.73;;;13.05;;
70796;SDS011;63842;52.144;5.360;2023-04-06T09:50:59;34.55;;;13.50;;
70796;SDS011;63842;52.144;5.360;2023-04-06T09:53:28;32.58;;;14.77;;
70796;SDS011;63842;52.144;5.360;2023-04-06T09:55:57;30.83;;;14.48;;
70796;SDS011;63842;52.144;5.360;2023-04-06T09:58:31;32.60;;;14.35;;
70796;SDS011;63842;52.144;5.360;2023-04-06T10:01:05;30.58;;;14.98;;
70796;SDS011;63842;52.144;5.360;2023-04-06T10:03:36;30.45;;;14.43;;
70796;SDS011;63842;52.144;5.360;2023-04-06T10:06:12;32.53;;;14.95;;
70796;SDS011;63842;52.144;5.360;2023-04-06T10:08:40;36.95;;;15.35;;
70796;SDS011;63842;52.144;5.360;2023-04-06T10:11:12;35.97;;;15.10;;
70796;SDS011;63842;52.144;5.360;2023-04-06T10:13:39;34.47;;;14.50;;
70796;SDS011;63842;52.144;5.360;2023-04-06T10:16:08;31.25;;;12.68;;
70796;SDS011;63842;52.144;5.360;2023-04-06T10:18:41;26.77;;;12.30;;
70796;SDS011;63842;52.144;5.360;2023-04-06T10:21:14;26.35;;;11.85;;
70796;SDS011;63842;52.144;5.360;2023-04-06T10:23:48;26.67;;;12.52;;
70796;SDS011;63842;52.144;5.360;2023-04-06T10:26:17;24.80;;;11.15;;
70796;SDS011;63842;52.144;5.360;2023-04-06T10:28:46;22.70;;;10.52;;
70796;SDS011;63842;52.144;5.360;2023-04-06T10:31:14;22.27;;;9.93;;
70796;SDS011;63842;52.144;5.360;2023-04-06T10:33:53;23.10;;;9.90;;
70796;SDS011;63842;52.144;5.360;2023-04-06T10:36:22;22.05;;;9.45;;
70796;SDS011;63842;52.144;5.360;2023-04-06T10:38:54;19.45;;;8.48;;
70796;SDS011;63842;52.144;5.360;2023-04-06T10:41:21;21.92;;;8.13;;
70796;SDS011;63842;52.144;5.360;2023-04-06T10:43:56;19.38;;;7.57;;
70796;SDS011;63842;52.144;5.360;2023-04-06T10:46:26;17.85;;;7.50;;
70796;SDS011;63842;52.144;5.360;2023-04-06T10:48:54;14.18;;;6.88;;
70796;SDS011;63842;52.144;5.360;2023-04-06T10:51:26;16.73;;;7.50;;
70796;SDS011;63842;52.144;5.360;2023-04-06T10:53:54;14.07;;;6.45;;
70796;SDS011;63842;52.144;5.360;2023-04-06T10:56:23;15.73;;;6.70;;
70796;SDS011;63842;52.144;5.360;2023-04-06T10:58:52;14.10;;;5.80;;
70796;SDS011;63842;52.144;5.360;2023-04-06T11:01:23;13.88;;;5.45;;
70796;SDS011;63842;52.144;5.360;2023-04-06T11:03:54;11.02;;;4.80;;
70796;SDS011;63842;52.144;5.360;2023-04-06T11:06:23;12.02;;;4.70;;
70796;SDS011;63842;52.144;5.360;2023-04-06T11:08:58;10.60;;;4.35;;
70796;SDS011;63842;52.144;5.360;2023-04-06T11:11:28;10.55;;;4.07;;
70796;SDS011;63842;52.144;5.360;2023-04-06T11:13:57;10.30;;;4.28;;
70796;SDS011;63842;52.144;5.360;2023-04-06T11:16:26;10.48;;;4.20;;
70796;SDS011;63842;52.144;5.360;2023-04-06T11:18:57;10.68;;;4.03;;
70796;SDS011;63842;52.144;5.360;2023-04-06T11:24:06;10.05;;;3.92;;
70796;SDS011;63842;52.144;5.360;2023-04-06T11:26:53;11.40;;;4.05;;
70796;SDS011;63842;52.144;5.360;2023-04-06T11:29:22;10.18;;;4.15;;
70796;SDS011;63842;52.144;5.360;2023-04-06T11:34:28;9.52;;;3.58;;
70796;SDS011;63842;52.144;5.360;2023-04-06T11:36:57;15.15;;;4.10;;
70796;SDS011;63842;52.144;5.360;2023-04-06T11:39:26;9.95;;;4.10;;
70796;SDS011;63842;52.144;5.360;2023-04-06T11:41:55;10.25;;;4.03;;
70796;SDS011;63842;52.144;5.360;2023-04-06T11:44:40;8.95;;;3.67;;
70796;SDS011;63842;52.144;5.360;2023-04-06T11:47:12;11.07;;;4.07;;
70796;SDS011;63842;52.144;5.360;2023-04-06T11:49:40;11.73;;;4.10;;
70796;SDS011;63842;52.144;5.360;2023-04-06T11:52:15;10.95;;;4.53;;
70796;SDS011;63842;52.144;5.360;2023-04-06T11:54:43;11.90;;;4.72;;
70796;SDS011;63842;52.144;5.360;2023-04-06T11:57:10;11.35;;;4.57;;
70796;SDS011;63842;52.144;5.360;2023-04-06T11:59:38;12.43;;;4.50;;
70796;SDS011;63842;52.144;5.360;2023-04-06T12:02:05;11.50;;;4.95;;
70796;SDS011;63842;52.144;5.360;2023-04-06T12:04:33;10.95;;;4.82;;
70796;SDS011;63842;52.144;5.360;2023-04-06T12:07:01;13.65;;;5.35;;
70796;SDS011;63842;52.144;5.360;2023-04-06T12:09:28;14.32;;;4.97;;
70796;SDS011;63842;52.144;5.360;2023-04-06T12:11:56;11.55;;;4.70;;
70796;SDS011;63842;52.144;5.360;2023-04-06T12:14:23;13.25;;;5.05;;
70796;SDS011;63842;52.144;5.360;2023-04-06T12:16:51;12.82;;;5.20;;
70796;SDS011;63842;52.144;5.360;2023-04-06T12:19:18;13.77;;;5.65;;
70796;SDS011;63842;52.144;5.360;2023-04-06T12:21:45;12.52;;;5.50;;
70796;SDS011;63842;52.144;5.360;2023-04-06T12:24:14;13.23;;;5.60;;
70796;SDS011;63842;52.144;5.360;2023-04-06T12:26:42;14.73;;;5.57;;
70796;SDS011;63842;52.144;5.360;2023-04-06T12:29:09;13.30;;;5.60;;
70796;SDS011;63842;52.144;5.360;2023-04-06T12:31:39;15.85;;;6.70;;
70796;SDS011;63842;52.144;5.360;2023-04-06T12:34:11;15.75;;;6.80;;
70796;SDS011;63842;52.144;5.360;2023-04-06T12:36:38;16.48;;;6.80;;
70796;SDS011;63842;52.144;5.360;2023-04-06T12:39:06;15.65;;;7.07;;
70796;SDS011;63842;52.144;5.360;2023-04-06T12:41:33;16.10;;;7.38;;
70796;SDS011;63842;52.144;5.360;2023-04-06T12:44:04;14.98;;;6.72;;
70796;SDS011;63842;52.144;5.360;2023-04-06T12:46:31;15.50;;;7.20;;
70796;SDS011;63842;52.144;5.360;2023-04-06T12:48:59;15.70;;;7.10;;
70796;SDS011;63842;52.144;5.360;2023-04-06T12:51:27;15.13;;;6.63;;
70796;SDS011;63842;52.144;5.360;2023-04-06T12:53:56;14.43;;;7.40;;
70796;SDS011;63842;52.144;5.360;2023-04-06T12:56:24;16.55;;;7.38;;
70796;SDS011;63842;52.144;5.360;2023-04-06T12:58:58;17.25;;;7.43;;
70796;SDS011;63842;52.144;5.360;2023-04-06T13:01:27;14.57;;;6.82;;
70796;SDS011;63842;52.144;5.360;2023-04-06T13:03:55;15.80;;;6.93;;
70796;SDS011;63842;52.144;5.360;2023-04-06T13:06:23;15.43;;;6.95;;
70796;SDS011;63842;52.144;5.360;2023-04-06T13:08:54;14.40;;;6.68;;
70796;SDS011;63842;52.144;5.360;2023-04-06T13:11:21;14.73;;;6.82;;
70796;SDS011;63842;52.144;5.360;2023-04-06T13:13:52;17.65;;;8.10;;
70796;SDS011;63842;52.144;5.360;2023-04-06T13:16:19;15.90;;;6.97;;
70796;SDS011;63842;52.144;5.360;2023-04-06T13:18:48;14.35;;;6.60;;
70796;SDS011;63842;52.144;5.360;2023-04-06T13:21:16;14.48;;;6.75;;
70796;SDS011;63842;52.144;5.360;2023-04-06T13:23:53;14.80;;;7.03;;
70796;SDS011;63842;52.144;5.360;2023-04-06T13:26:32;14.02;;;6.70;;
70796;SDS011;63842;52.144;5.360;2023-04-06T13:29:02;15.60;;;6.70;;
70796;SDS011;63842;52.144;5.360;2023-04-06T13:31:38;17.08;;;7.28;;
70796;SDS011;63842;52.144;5.360;2023-04-06T13:34:09;15.38;;;6.95;;
70796;SDS011;63842;52.144;5.360;2023-04-06T13:39:11;15.35;;;6.70;;
70796;SDS011;63842;52.144;5.360;2023-04-06T13:41:40;15.40;;;6.65;;
70796;SDS011;63842;52.144;5.360;2023-04-06T13:44:08;16.10;;;6.13;;
70796;SDS011;63842;52.144;5.360;2023-04-06T13:46:37;14.70;;;6.82;;
70796;SDS011;63842;52.144;5.360;2023-04-06T13:49:07;15.82;;;6.88;;
70796;SDS011;63842;52.144;5.360;2023-04-06T13:51:34;16.60;;;7.07;;
70796;SDS011;63842;52.144;5.360;2023-04-06T13:54:16;15.52;;;6.70;;
70796;SDS011;63842;52.144;5.360;2023-04-06T13:56:44;15.75;;;7.22;;
70796;SDS011;63842;52.144;5.360;2023-04-06T13:59:13;16.60;;;6.88;;
70796;SDS011;63842;52.144;5.360;2023-04-06T14:01:51;16.83;;;7.53;;
70796;SDS011;63842;52.144;5.360;2023-04-06T14:04:23;15.35;;;6.68;;
70796;SDS011;63842;52.144;5.360;2023-04-06T14:06:50;14.02;;;6.63;;
70796;SDS011;63842;52.144;5.360;2023-04-06T14:09:17;14.15;;;6.65;;
70796;SDS011;63842;52.144;5.360;2023-04-06T14:11:47;14.95;;;7.05;;
70796;SDS011;63842;52.144;5.360;2023-04-06T14:14:15;15.73;;;6.65;;
70796;SDS011;63842;52.144;5.360;2023-04-06T14:16:43;13.95;;;6.90;;
70796;SDS011;63842;52.144;5.360;2023-04-06T14:19:12;16.80;;;7.07;;
70796;SDS011;63842;52.144;5.360;2023-04-06T14:21:43;14.18;;;6.50;;
70796;SDS011;63842;52.144;5.360;2023-04-06T14:24:11;14.68;;;6.57;;
70796;SDS011;63842;52.144;5.360;2023-04-06T14:26:39;15.48;;;6.45;;
70796;SDS011;63842;52.144;5.360;2023-04-06T14:29:09;14.25;;;6.53;;
70796;SDS011;63842;52.144;5.360;2023-04-06T14:31:36;14.85;;;6.78;;
70796;SDS011;63842;52.144;5.360;2023-04-06T14:34:07;16.23;;;7.28;;
70796;SDS011;63842;52.144;5.360;2023-04-06T14:36:34;16.38;;;6.82;;
70796;SDS011;63842;52.144;5.360;2023-04-06T14:39:06;14.27;;;6.88;;
70796;SDS011;63842;52.144;5.360;2023-04-06T14:41:34;14.20;;;6.38;;
70796;SDS011;63842;52.144;5.360;2023-04-06T14:44:02;14.80;;;7.10;;
70796;SDS011;63842;52.144;5.360;2023-04-06T14:46:39;13.27;;;6.07;;
70796;SDS011;63842;52.144;5.360;2023-04-06T14:49:06;15.82;;;6.97;;
70796;SDS011;63842;52.144;5.360;2023-04-06T14:51:35;14.10;;;6.28;;
70796;SDS011;63842;52.144;5.360;2023-04-06T14:54:02;14.73;;;6.60;;
70796;SDS011;63842;52.144;5.360;2023-04-06T14:56:30;14.10;;;6.55;;
70796;SDS011;63842;52.144;5.360;2023-04-06T14:58:58;14.80;;;6.90;;
70796;SDS011;63842;52.144;5.360;2023-04-06T15:01:27;13.73;;;6.82;;
70796;SDS011;63842;52.144;5.360;2023-04-06T15:03:57;15.77;;;6.95;;